Terminal Aerodrome Forecast
Issued by NWS Charleston, WV

Home | Current Version | Previous Version | Text Only | Print | Product List | Glossary On
Versions: 1 2 3 4 5 6 7 8 9 10 11 12 13 14 15 16 17 18 19 20
000
FTUS41 KRLX 310900 AAA
TAFBKW
TAF AMD
KBKW 310903Z 3109/0106 24004KT 6SM -SHRA SCT040 OVC060
     FM311600 23007KT P6SM VCSH BKN050
     FM312000 24006KT 6SM -SHRA VCTS BKN050CB PROB30 3120/3122 2SM
      -TSRA OVC030CB
     FM010000 00000KT 6SM -SHRA OVC060
     FM010300 23007KT 4SM BR OVC025=

USA.gov is the U.S. government's official web portal to all federal, state and local government web resources and services.